createdAt,value
2023-05-08T00:00:33.621Z,50
2023-05-08T00:15:32.595Z,50
2023-05-08T00:30:32.189Z,50
2023-05-08T00:45:32.852Z,51
2023-05-08T01:00:32.729Z,51
2023-05-08T01:15:32.418Z,51
2023-05-08T01:30:32.543Z,51
2023-05-08T01:45:32.563Z,51
2023-05-08T02:00:33.753Z,51
2023-05-08T02:15:32.055Z,51
2023-05-08T02:30:33.295Z,51
2023-05-08T02:45:32.138Z,52
2023-05-08T03:00:32.685Z,52
2023-05-08T03:15:32.156Z,52
2023-05-08T03:30:33.027Z,52
2023-05-08T03:45:32.011Z,52
2023-05-08T04:00:32.946Z,52
2023-05-08T04:15:32.315Z,52
2023-05-08T04:30:34.090Z,51
2023-05-08T04:45:32.791Z,51
2023-05-08T05:00:32.772Z,51
2023-05-08T05:15:33.277Z,51
2023-05-08T05:30:33.711Z,50
2023-05-08T05:45:33.896Z,50
2023-05-08T06:00:33.665Z,50
2023-05-08T06:15:32.921Z,50
2023-05-08T06:30:33.654Z,49
2023-05-08T06:45:33.191Z,49
2023-05-08T07:00:33.311Z,49
2023-05-08T07:15:33.533Z,49
2023-05-08T07:30:34.412Z,49
2023-05-08T07:45:33.870Z,49
2023-05-08T08:00:34.429Z,49
2023-05-08T08:15:33.403Z,49
2023-05-08T08:30:34.075Z,49
2023-05-08T08:45:33.504Z,48
2023-05-08T09:00:36.270Z,48
2023-05-08T09:15:33.344Z,48
2023-05-08T09:30:33.700Z,48
2023-05-08T09:45:32.765Z,48
2023-05-08T10:00:33.212Z,48
2023-05-08T10:15:32.278Z,48
2023-05-08T10:30:33.080Z,48
2023-05-08T10:45:32.521Z,48
2023-05-08T11:00:32.848Z,48
2023-05-08T11:15:32.458Z,48
2023-05-08T11:30:33.580Z,48
2023-05-08T11:45:32.360Z,47
2023-05-08T12:00:34.657Z,47
2023-05-08T12:15:32.699Z,47
2023-05-08T14:15:37.936Z,46
2023-05-08T14:30:33.495Z,46
2023-05-08T16:00:45.597Z,46
2023-05-08T16:15:32.490Z,45
2023-05-08T16:30:32.740Z,45
2023-05-08T16:45:33.360Z,45
2023-05-08T17:00:33.517Z,45
2023-05-08T17:15:32.604Z,45
2023-05-08T17:30:33.145Z,45
2023-05-08T17:45:32.252Z,45
2023-05-08T18:00:33.495Z,45
2023-05-08T18:15:32.602Z,45
2023-05-08T18:30:33.195Z,46
2023-05-08T18:45:32.992Z,46
2023-05-08T19:00:33.358Z,46
2023-05-08T19:15:32.823Z,46
2023-05-08T19:30:33.531Z,46
2023-05-08T19:45:32.417Z,46
2023-05-08T20:00:33.226Z,46
2023-05-08T20:15:33.376Z,46
2023-05-08T20:30:34.786Z,46
2023-05-08T20:45:33.384Z,46
2023-05-08T21:00:33.175Z,46
2023-05-08T21:15:32.337Z,46
2023-05-08T21:30:32.885Z,46
2023-05-08T21:45:32.113Z,46
2023-05-08T22:00:33.943Z,45
2023-05-08T22:15:33.155Z,45
2023-05-08T22:30:33.027Z,45
2023-05-08T22:45:32.770Z,45
2023-05-08T23:00:32.637Z,45
2023-05-08T23:15:32.685Z,45
2023-05-08T23:30:32.252Z,45
2023-05-08T23:45:32.916Z,45
